CYOO

Oshawa Airport

Oshawa, , Canada
METAR CYOO 191500Z AUTO 23007G15KT 9SM SCT037 M02/M07 A2989 RMK SLP130
Observed Flight Rules
Jan-19 @ 15:00 UTC (31 minutes ago) Visual Flight Rules
Wind Visibility Clouds
230° at 7 knots
 Gusting to 15 knots
9 miles
  • Scattered at 3,700' AGL
Temperatures Readings
Current -2°C / 28°F
Dewpoint -7°C / 19°F
Humidity 69%
Altimeter 29.89" Hg
Pressure 1013 hPa
Elevation 139
METAR CYOO 191500Z AUTO 23007G15KT 9SM SCT037 M02/M07 A2989 RMK SLP130
Observed Flight Rules
Jan-19 @ 15:00 UTC
(31 minutes ago)
VFR
Wind Visibility
230° at 7 knots
 Gusting to 15 knots
9 miles
Clouds
  • Scattered at 3,700' AGL
Temperature Dewpoint
-2°C / 28°F -7°C / 19°F
Humidity Altimeter Pressure
69% 29.89" Hg 1013 hPa